sensor_id;sensor_type;location;lat;lon;timestamp;P1;durP1;ratioP1;P2;durP2;ratioP2
71570;SDS011;59407;42.682;23.322;2024-01-30T05:49:15;6.53;;;2.60;;
71570;SDS011;59407;42.682;23.322;2024-01-30T05:51:41;6.05;;;3.42;;
71570;SDS011;59407;42.682;23.322;2024-01-30T05:54:07;3.93;;;3.23;;
71570;SDS011;59407;42.682;23.322;2024-01-30T05:56:33;4.68;;;3.05;;
71570;SDS011;59407;42.682;23.322;2024-01-30T05:58:59;6.15;;;3.20;;
71570;SDS011;59407;42.682;23.322;2024-01-30T06:01:24;4.63;;;3.10;;
71570;SDS011;59407;42.682;23.322;2024-01-30T06:03:51;6.60;;;3.33;;
71570;SDS011;59407;42.682;23.322;2024-01-30T06:06:16;6.27;;;2.97;;
71570;SDS011;59407;42.682;23.322;2024-01-30T06:08:41;8.90;;;3.83;;
71570;SDS011;59407;42.682;23.322;2024-01-30T06:11:10;15.52;;;3.70;;
71570;SDS011;59407;42.682;23.322;2024-01-30T06:13:36;4.70;;;2.80;;
71570;SDS011;59407;42.682;23.322;2024-01-30T06:16:01;5.27;;;2.60;;
71570;SDS011;59407;42.682;23.322;2024-01-30T06:18:28;6.78;;;3.53;;
71570;SDS011;59407;42.682;23.322;2024-01-30T06:20:56;5.07;;;2.63;;
71570;SDS011;59407;42.682;23.322;2024-01-30T06:23:21;6.18;;;3.42;;
71570;SDS011;59407;42.682;23.322;2024-01-30T06:25:47;6.53;;;2.87;;
71570;SDS011;59407;42.682;23.322;2024-01-30T06:28:13;9.55;;;2.80;;
71570;SDS011;59407;42.682;23.322;2024-01-30T06:30:39;7.43;;;3.35;;
71570;SDS011;59407;42.682;23.322;2024-01-30T06:33:04;9.13;;;3.72;;
71570;SDS011;59407;42.682;23.322;2024-01-30T06:35:31;7.13;;;3.53;;
71570;SDS011;59407;42.682;23.322;2024-01-30T06:37:56;6.13;;;3.37;;
71570;SDS011;59407;42.682;23.322;2024-01-30T06:40:22;6.00;;;3.35;;
71570;SDS011;59407;42.682;23.322;2024-01-30T06:42:50;9.73;;;3.63;;
71570;SDS011;59407;42.682;23.322;2024-01-30T06:45:15;8.18;;;3.58;;
71570;SDS011;59407;42.682;23.322;2024-01-30T06:47:41;6.07;;;3.07;;
71570;SDS011;59407;42.682;23.322;2024-01-30T06:50:07;7.75;;;3.40;;
71570;SDS011;59407;42.682;23.322;2024-01-30T06:52:33;6.43;;;3.22;;
71570;SDS011;59407;42.682;23.322;2024-01-30T06:54:58;4.15;;;2.65;;
71570;SDS011;59407;42.682;23.322;2024-01-30T06:57:24;8.50;;;3.03;;
71570;SDS011;59407;42.682;23.322;2024-01-30T06:59:53;4.63;;;3.08;;
71570;SDS011;59407;42.682;23.322;2024-01-30T07:02:22;8.35;;;4.30;;
71570;SDS011;59407;42.682;23.322;2024-01-30T07:04:48;6.13;;;2.43;;
71570;SDS011;59407;42.682;23.322;2024-01-30T07:07:14;7.45;;;2.53;;
71570;SDS011;59407;42.682;23.322;2024-01-30T07:09:41;10.25;;;3.28;;
71570;SDS011;59407;42.682;23.322;2024-01-30T07:12:12;5.97;;;2.60;;
71570;SDS011;59407;42.682;23.322;2024-01-30T07:14:38;3.90;;;2.30;;
71570;SDS011;59407;42.682;23.322;2024-01-30T07:17:04;6.40;;;3.25;;
71570;SDS011;59407;42.682;23.322;2024-01-30T07:19:29;5.35;;;2.60;;
71570;SDS011;59407;42.682;23.322;2024-01-30T07:21:56;5.00;;;2.72;;
71570;SDS011;59407;42.682;23.322;2024-01-30T07:24:21;6.90;;;2.97;;
71570;SDS011;59407;42.682;23.322;2024-01-30T07:26:48;4.10;;;2.60;;
71570;SDS011;59407;42.682;23.322;2024-01-30T07:29:15;4.10;;;2.22;;
71570;SDS011;59407;42.682;23.322;2024-01-30T07:31:41;7.43;;;2.78;;
71570;SDS011;59407;42.682;23.322;2024-01-30T07:34:07;6.07;;;1.60;;
71570;SDS011;59407;42.682;23.322;2024-01-30T07:36:33;5.32;;;2.70;;
71570;SDS011;59407;42.682;23.322;2024-01-30T07:38:59;7.70;;;2.37;;
71570;SDS011;59407;42.682;23.322;2024-01-30T07:41:25;6.45;;;1.92;;
71570;SDS011;59407;42.682;23.322;2024-01-30T07:43:51;2.95;;;2.22;;
71570;SDS011;59407;42.682;23.322;2024-01-30T07:46:18;6.10;;;2.63;;
71570;SDS011;59407;42.682;23.322;2024-01-30T07:48:44;4.32;;;2.42;;
71570;SDS011;59407;42.682;23.322;2024-01-30T07:51:11;3.28;;;2.00;;
71570;SDS011;59407;42.682;23.322;2024-01-30T07:53:39;4.90;;;2.33;;
71570;SDS011;59407;42.682;23.322;2024-01-30T07:56:08;6.10;;;2.15;;
71570;SDS011;59407;42.682;23.322;2024-01-30T07:58:36;4.72;;;2.30;;
71570;SDS011;59407;42.682;23.322;2024-01-30T08:01:03;3.95;;;2.03;;
71570;SDS011;59407;42.682;23.322;2024-01-30T08:03:28;4.43;;;1.77;;
71570;SDS011;59407;42.682;23.322;2024-01-30T08:05:54;3.97;;;2.30;;
71570;SDS011;59407;42.682;23.322;2024-01-30T08:08:20;5.20;;;2.33;;
71570;SDS011;59407;42.682;23.322;2024-01-30T08:10:46;4.40;;;2.30;;
71570;SDS011;59407;42.682;23.322;2024-01-30T08:13:14;5.68;;;1.90;;
71570;SDS011;59407;42.682;23.322;2024-01-30T08:15:40;4.07;;;2.00;;
71570;SDS011;59407;42.682;23.322;2024-01-30T08:18:05;5.15;;;2.05;;
71570;SDS011;59407;42.682;23.322;2024-01-30T08:20:32;4.43;;;2.35;;
71570;SDS011;59407;42.682;23.322;2024-01-30T08:22:57;7.85;;;3.78;;
71570;SDS011;59407;42.682;23.322;2024-01-30T08:25:23;5.60;;;2.40;;
71570;SDS011;59407;42.682;23.322;2024-01-30T08:27:48;5.25;;;2.85;;
71570;SDS011;59407;42.682;23.322;2024-01-30T08:30:17;4.80;;;2.23;;
71570;SDS011;59407;42.682;23.322;2024-01-30T08:32:44;5.03;;;2.08;;
71570;SDS011;59407;42.682;23.322;2024-01-30T08:35:10;5.93;;;2.22;;
71570;SDS011;59407;42.682;23.322;2024-01-30T08:37:40;4.82;;;2.50;;
71570;SDS011;59407;42.682;23.322;2024-01-30T08:40:07;4.05;;;2.40;;
71570;SDS011;59407;42.682;23.322;2024-01-30T08:42:35;6.70;;;2.83;;
71570;SDS011;59407;42.682;23.322;2024-01-30T08:45:01;5.13;;;2.42;;
71570;SDS011;59407;42.682;23.322;2024-01-30T08:47:29;5.03;;;2.63;;
71570;SDS011;59407;42.682;23.322;2024-01-30T08:49:56;4.20;;;2.50;;
71570;SDS011;59407;42.682;23.322;2024-01-30T08:52:22;8.10;;;2.95;;
71570;SDS011;59407;42.682;23.322;2024-01-30T08:54:48;6.33;;;2.60;;
71570;SDS011;59407;42.682;23.322;2024-01-30T08:57:14;6.38;;;2.67;;
71570;SDS011;59407;42.682;23.322;2024-01-30T08:59:40;4.53;;;2.53;;
71570;SDS011;59407;42.682;23.322;2024-01-30T09:02:07;5.47;;;2.97;;
71570;SDS011;59407;42.682;23.322;2024-01-30T09:04:42;5.80;;;2.60;;
71570;SDS011;59407;42.682;23.322;2024-01-30T09:07:20;4.43;;;2.30;;
71570;SDS011;59407;42.682;23.322;2024-01-30T09:09:46;6.03;;;2.78;;
71570;SDS011;59407;42.682;23.322;2024-01-30T09:12:12;5.03;;;2.63;;
71570;SDS011;59407;42.682;23.322;2024-01-30T09:14:39;5.68;;;2.00;;
71570;SDS011;59407;42.682;23.322;2024-01-30T09:17:08;4.60;;;2.38;;
71570;SDS011;59407;42.682;23.322;2024-01-30T09:19:33;4.83;;;2.40;;
71570;SDS011;59407;42.682;23.322;2024-01-30T09:22:00;4.83;;;2.33;;
71570;SDS011;59407;42.682;23.322;2024-01-30T09:24:26;4.25;;;2.53;;
71570;SDS011;59407;42.682;23.322;2024-01-30T09:26:52;6.07;;;2.92;;
71570;SDS011;59407;42.682;23.322;2024-01-30T09:29:18;4.47;;;2.00;;
71570;SDS011;59407;42.682;23.322;2024-01-30T09:31:44;4.55;;;2.08;;
71570;SDS011;59407;42.682;23.322;2024-01-30T09:34:10;5.83;;;2.40;;
71570;SDS011;59407;42.682;23.322;2024-01-30T09:36:37;3.70;;;1.98;;
71570;SDS011;59407;42.682;23.322;2024-01-30T09:39:03;5.32;;;2.75;;
71570;SDS011;59407;42.682;23.322;2024-01-30T09:41:29;3.55;;;2.00;;
71570;SDS011;59407;42.682;23.322;2024-01-30T09:43:58;4.45;;;2.72;;
71570;SDS011;59407;42.682;23.322;2024-01-30T09:46:26;3.77;;;1.80;;
71570;SDS011;59407;42.682;23.322;2024-01-30T09:48:53;3.55;;;1.85;;
71570;SDS011;59407;42.682;23.322;2024-01-30T09:51:20;4.63;;;2.33;;
71570;SDS011;59407;42.682;23.322;2024-01-30T09:53:49;5.00;;;2.70;;
71570;SDS011;59407;42.682;23.322;2024-01-30T09:56:15;4.15;;;2.25;;
71570;SDS011;59407;42.682;23.322;2024-01-30T09:58:44;2.87;;;1.40;;
71570;SDS011;59407;42.682;23.322;2024-01-30T10:01:12;3.03;;;1.73;;
71570;SDS011;59407;42.682;23.322;2024-01-30T10:03:38;5.53;;;2.40;;
71570;SDS011;59407;42.682;23.322;2024-01-30T10:06:04;5.07;;;1.87;;
71570;SDS011;59407;42.682;23.322;2024-01-30T10:08:31;6.13;;;2.75;;
71570;SDS011;59407;42.682;23.322;2024-01-30T10:10:57;5.57;;;2.63;;
71570;SDS011;59407;42.682;23.322;2024-01-30T10:13:23;5.15;;;2.58;;
71570;SDS011;59407;42.682;23.322;2024-01-30T10:15:49;7.87;;;3.43;;
71570;SDS011;59407;42.682;23.322;2024-01-30T10:18:15;4.45;;;2.22;;
71570;SDS011;59407;42.682;23.322;2024-01-30T10:20:41;3.70;;;1.85;;
71570;SDS011;59407;42.682;23.322;2024-01-30T10:23:07;6.50;;;3.00;;
71570;SDS011;59407;42.682;23.322;2024-01-30T10:25:33;4.13;;;1.88;;
71570;SDS011;59407;42.682;23.322;2024-01-30T10:27:59;4.80;;;2.15;;
71570;SDS011;59407;42.682;23.322;2024-01-30T10:30:27;5.40;;;2.45;;
71570;SDS011;59407;42.682;23.322;2024-01-30T10:32:54;3.85;;;1.88;;
71570;SDS011;59407;42.682;23.322;2024-01-30T10:35:25;4.43;;;2.10;;
71570;SDS011;59407;42.682;23.322;2024-01-30T10:37:56;4.03;;;2.03;;
71570;SDS011;59407;42.682;23.322;2024-01-30T10:40:24;4.00;;;1.85;;
71570;SDS011;59407;42.682;23.322;2024-01-30T10:42:53;4.40;;;2.10;;
71570;SDS011;59407;42.682;23.322;2024-01-30T10:45:20;7.15;;;2.28;;
71570;SDS011;59407;42.682;23.322;2024-01-30T10:47:50;3.63;;;2.20;;
71570;SDS011;59407;42.682;23.322;2024-01-30T10:50:18;4.70;;;2.25;;
71570;SDS011;59407;42.682;23.322;2024-01-30T10:52:45;5.13;;;2.45;;
71570;SDS011;59407;42.682;23.322;2024-01-30T10:55:15;4.13;;;2.25;;
71570;SDS011;59407;42.682;23.322;2024-01-30T10:57:41;6.13;;;1.90;;
71570;SDS011;59407;42.682;23.322;2024-01-30T11:00:08;4.63;;;1.80;;
71570;SDS011;59407;42.682;23.322;2024-01-30T11:02:36;6.00;;;2.05;;
71570;SDS011;59407;42.682;23.322;2024-01-30T11:05:04;3.53;;;1.73;;
71570;SDS011;59407;42.682;23.322;2024-01-30T11:07:30;3.05;;;1.60;;
71570;SDS011;59407;42.682;23.322;2024-01-30T11:10:00;4.27;;;2.50;;
71570;SDS011;59407;42.682;23.322;2024-01-30T11:12:30;3.65;;;2.20;;
71570;SDS011;59407;42.682;23.322;2024-01-30T11:17:45;4.15;;;2.22;;
71570;SDS011;59407;42.682;23.322;2024-01-30T11:20:21;2.73;;;1.53;;
71570;SDS011;59407;42.682;23.322;2024-01-30T11:22:49;5.03;;;2.28;;
71570;SDS011;59407;42.682;23.322;2024-01-30T11:25:16;4.07;;;1.98;;
71570;SDS011;59407;42.682;23.322;2024-01-30T11:27:44;4.00;;;2.08;;
71570;SDS011;59407;42.682;23.322;2024-01-30T11:30:28;6.57;;;2.03;;
71570;SDS011;59407;42.682;23.322;2024-01-30T11:35:30;3.88;;;1.88;;
71570;SDS011;59407;42.682;23.322;2024-01-30T11:37:58;5.57;;;2.45;;
71570;SDS011;59407;42.682;23.322;2024-01-30T11:40:29;3.92;;;1.92;;
71570;SDS011;59407;42.682;23.322;2024-01-30T11:42:55;3.40;;;1.70;;
71570;SDS011;59407;42.682;23.322;2024-01-30T11:45:21;4.80;;;2.17;;
71570;SDS011;59407;42.682;23.322;2024-01-30T11:47:47;3.72;;;1.77;;
71570;SDS011;59407;42.682;23.322;2024-01-30T11:50:13;5.77;;;2.37;;
71570;SDS011;59407;42.682;23.322;2024-01-30T11:52:39;3.70;;;1.95;;
71570;SDS011;59407;42.682;23.322;2024-01-30T11:55:05;4.15;;;2.35;;
71570;SDS011;59407;42.682;23.322;2024-01-30T11:57:30;4.23;;;2.03;;
71570;SDS011;59407;42.682;23.322;2024-01-30T11:59:56;3.78;;;2.20;;
71570;SDS011;59407;42.682;23.322;2024-01-30T12:02:24;4.50;;;2.10;;
71570;SDS011;59407;42.682;23.322;2024-01-30T12:04:49;4.20;;;2.38;;
71570;SDS011;59407;42.682;23.322;2024-01-30T12:07:15;5.77;;;2.50;;
71570;SDS011;59407;42.682;23.322;2024-01-30T12:09:41;8.70;;;2.83;;
71570;SDS011;59407;42.682;23.322;2024-01-30T12:12:07;6.50;;;2.70;;
71570;SDS011;59407;42.682;23.322;2024-01-30T12:14:37;4.38;;;1.83;;
71570;SDS011;59407;42.682;23.322;2024-01-30T12:17:04;4.88;;;2.72;;
71570;SDS011;59407;42.682;23.322;2024-01-30T12:19:30;6.23;;;2.60;;
71570;SDS011;59407;42.682;23.322;2024-01-30T12:21:56;5.65;;;2.30;;
71570;SDS011;59407;42.682;23.322;2024-01-30T12:24:23;3.95;;;2.35;;
71570;SDS011;59407;42.682;23.322;2024-01-30T12:26:50;4.68;;;2.47;;
71570;SDS011;59407;42.682;23.322;2024-01-30T12:29:16;5.95;;;2.55;;
71570;SDS011;59407;42.682;23.322;2024-01-30T12:31:41;6.20;;;2.63;;
71570;SDS011;59407;42.682;23.322;2024-01-30T12:34:07;6.68;;;2.60;;
71570;SDS011;59407;42.682;23.322;2024-01-30T12:36:33;5.90;;;2.80;;
71570;SDS011;59407;42.682;23.322;2024-01-30T12:38:59;4.43;;;2.50;;
71570;SDS011;59407;42.682;23.322;2024-01-30T12:41:25;4.00;;;2.00;;
71570;SDS011;59407;42.682;23.322;2024-01-30T12:43:53;6.68;;;2.88;;
71570;SDS011;59407;42.682;23.322;2024-01-30T12:46:19;6.23;;;2.53;;
71570;SDS011;59407;42.682;23.322;2024-01-30T12:48:45;6.65;;;3.63;;
71570;SDS011;59407;42.682;23.322;2024-01-30T12:51:11;6.97;;;2.57;;
71570;SDS011;59407;42.682;23.322;2024-01-30T12:53:36;6.40;;;3.43;;
71570;SDS011;59407;42.682;23.322;2024-01-30T12:56:02;4.72;;;2.67;;
71570;SDS011;59407;42.682;23.322;2024-01-30T12:58:28;7.50;;;3.55;;
71570;SDS011;59407;42.682;23.322;2024-01-30T13:00:53;4.50;;;2.67;;
71570;SDS011;59407;42.682;23.322;2024-01-30T13:03:19;2.28;;;1.23;;
71570;SDS011;59407;42.682;23.322;2024-01-30T13:05:45;5.57;;;2.43;;
71570;SDS011;59407;42.682;23.322;2024-01-30T13:08:11;3.78;;;2.25;;
71570;SDS011;59407;42.682;23.322;2024-01-30T13:10:36;4.37;;;2.13;;
71570;SDS011;59407;42.682;23.322;2024-01-30T13:13:02;4.00;;;2.05;;
71570;SDS011;59407;42.682;23.322;2024-01-30T13:15:27;4.60;;;2.20;;
71570;SDS011;59407;42.682;23.322;2024-01-30T13:17:53;4.00;;;2.10;;
71570;SDS011;59407;42.682;23.322;2024-01-30T13:20:19;4.63;;;2.72;;
71570;SDS011;59407;42.682;23.322;2024-01-30T13:22:47;6.05;;;2.60;;
71570;SDS011;59407;42.682;23.322;2024-01-30T13:25:14;6.18;;;2.72;;
71570;SDS011;59407;42.682;23.322;2024-01-30T13:27:40;4.70;;;2.40;;
71570;SDS011;59407;42.682;23.322;2024-01-30T13:30:06;5.78;;;3.15;;
71570;SDS011;59407;42.682;23.322;2024-01-30T13:32:34;4.38;;;2.35;;
71570;SDS011;59407;42.682;23.322;2024-01-30T13:34:59;4.57;;;2.70;;
71570;SDS011;59407;42.682;23.322;2024-01-30T13:37:25;4.67;;;2.57;;
71570;SDS011;59407;42.682;23.322;2024-01-30T13:39:50;6.97;;;3.73;;
71570;SDS011;59407;42.682;23.322;2024-01-30T13:42:15;9.23;;;3.83;;
71570;SDS011;59407;42.682;23.322;2024-01-30T13:44:41;6.05;;;3.28;;
71570;SDS011;59407;42.682;23.322;2024-01-30T13:47:09;5.43;;;2.57;;
71570;SDS011;59407;42.682;23.322;2024-01-30T13:49:35;6.00;;;2.70;;
71570;SDS011;59407;42.682;23.322;2024-01-30T13:52:00;6.33;;;2.73;;
71570;SDS011;59407;42.682;23.322;2024-01-30T13:54:28;5.10;;;2.70;;
71570;SDS011;59407;42.682;23.322;2024-01-30T13:56:54;4.70;;;2.67;;
71570;SDS011;59407;42.682;23.322;2024-01-30T13:59:19;6.07;;;3.07;;
71570;SDS011;59407;42.682;23.322;2024-01-30T14:01:49;6.03;;;2.53;;
71570;SDS011;59407;42.682;23.322;2024-01-30T14:04:15;5.68;;;3.33;;
71570;SDS011;59407;42.682;23.322;2024-01-30T14:06:40;5.82;;;3.33;;
71570;SDS011;59407;42.682;23.322;2024-01-30T14:09:06;6.40;;;2.90;;
71570;SDS011;59407;42.682;23.322;2024-01-30T14:11:31;5.15;;;2.80;;
71570;SDS011;59407;42.682;23.322;2024-01-30T14:13:57;6.10;;;2.72;;
71570;SDS011;59407;42.682;23.322;2024-01-30T14:16:22;5.97;;;3.40;;
71570;SDS011;59407;42.682;23.322;2024-01-30T14:18:49;5.07;;;2.72;;
71570;SDS011;59407;42.682;23.322;2024-01-30T14:21:15;6.68;;;2.80;;
71570;SDS011;59407;42.682;23.322;2024-01-30T14:23:42;4.97;;;2.63;;
71570;SDS011;59407;42.682;23.322;2024-01-30T14:26:09;6.50;;;2.50;;
71570;SDS011;59407;42.682;23.322;2024-01-30T14:28:36;6.47;;;2.75;;
71570;SDS011;59407;42.682;23.322;2024-01-30T14:31:01;4.85;;;2.38;;
71570;SDS011;59407;42.682;23.322;2024-01-30T14:33:27;5.85;;;3.10;;
71570;SDS011;59407;42.682;23.322;2024-01-30T14:35:52;2.93;;;1.57;;
71570;SDS011;59407;42.682;23.322;2024-01-30T14:38:18;6.27;;;3.07;;
71570;SDS011;59407;42.682;23.322;2024-01-30T14:40:44;6.05;;;2.35;;
71570;SDS011;59407;42.682;23.322;2024-01-30T14:43:12;4.18;;;1.90;;
71570;SDS011;59407;42.682;23.322;2024-01-30T14:45:39;5.63;;;3.08;;
71570;SDS011;59407;42.682;23.322;2024-01-30T14:48:04;5.30;;;2.47;;
71570;SDS011;59407;42.682;23.322;2024-01-30T14:50:30;8.70;;;2.90;;
71570;SDS011;59407;42.682;23.322;2024-01-30T14:52:57;5.05;;;2.78;;
71570;SDS011;59407;42.682;23.322;2024-01-30T14:55:22;6.80;;;3.10;;
71570;SDS011;59407;42.682;23.322;2024-01-30T14:57:49;6.85;;;2.72;;
71570;SDS011;59407;42.682;23.322;2024-01-30T15:00:16;6.72;;;2.53;;
71570;SDS011;59407;42.682;23.322;2024-01-30T15:02:44;6.40;;;3.03;;
71570;SDS011;59407;42.682;23.322;2024-01-30T15:05:11;4.57;;;2.38;;
71570;SDS011;59407;42.682;23.322;2024-01-30T15:07:38;7.32;;;2.70;;
71570;SDS011;59407;42.682;23.322;2024-01-30T15:10:04;4.78;;;2.72;;
71570;SDS011;59407;42.682;23.322;2024-01-30T15:12:30;4.63;;;2.43;;
71570;SDS011;59407;42.682;23.322;2024-01-30T15:14:55;6.38;;;3.58;;
71570;SDS011;59407;42.682;23.322;2024-01-30T15:17:21;5.83;;;3.00;;
71570;SDS011;59407;42.682;23.322;2024-01-30T15:19:47;6.47;;;2.90;;
71570;SDS011;59407;42.682;23.322;2024-01-30T15:22:15;4.43;;;2.65;;
71570;SDS011;59407;42.682;23.322;2024-01-30T15:24:41;8.07;;;2.80;;
71570;SDS011;59407;42.682;23.322;2024-01-30T15:27:08;5.70;;;3.25;;
71570;SDS011;59407;42.682;23.322;2024-01-30T15:29:35;7.30;;;3.60;;
71570;SDS011;59407;42.682;23.322;2024-01-30T15:32:02;11.77;;;3.78;;
71570;SDS011;59407;42.682;23.322;2024-01-30T15:34:32;7.27;;;3.77;;
71570;SDS011;59407;42.682;23.322;2024-01-30T15:36:57;7.55;;;4.03;;
71570;SDS011;59407;42.682;23.322;2024-01-30T15:39:25;8.85;;;4.93;;
71570;SDS011;59407;42.682;23.322;2024-01-30T15:41:52;8.43;;;4.43;;
71570;SDS011;59407;42.682;23.322;2024-01-30T15:44:18;5.90;;;4.07;;
71570;SDS011;59407;42.682;23.322;2024-01-30T15:46:44;8.18;;;4.63;;
71570;SDS011;59407;42.682;23.322;2024-01-30T15:49:10;7.23;;;4.07;;
71570;SDS011;59407;42.682;23.322;2024-01-30T15:51:37;9.43;;;5.13;;
71570;SDS011;59407;42.682;23.322;2024-01-30T15:54:06;7.03;;;4.53;;
71570;SDS011;59407;42.682;23.322;2024-01-30T15:56:33;9.30;;;3.67;;
71570;SDS011;59407;42.682;23.322;2024-01-30T15:59:00;7.18;;;4.50;;
71570;SDS011;59407;42.682;23.322;2024-01-30T16:01:26;6.73;;;3.47;;
71570;SDS011;59407;42.682;23.322;2024-01-30T16:03:52;6.75;;;4.15;;
71570;SDS011;59407;42.682;23.322;2024-01-30T16:06:17;8.27;;;4.30;;
71570;SDS011;59407;42.682;23.322;2024-01-30T16:08:43;8.23;;;5.40;;
71570;SDS011;59407;42.682;23.322;2024-01-30T16:11:09;7.50;;;3.65;;
71570;SDS011;59407;42.682;23.322;2024-01-30T16:13:35;11.95;;;6.10;;
71570;SDS011;59407;42.682;23.322;2024-01-30T16:16:05;7.00;;;4.15;;
71570;SDS011;59407;42.682;23.322;2024-01-30T16:18:34;10.20;;;5.65;;
71570;SDS011;59407;42.682;23.322;2024-01-30T16:21:00;8.80;;;4.90;;
71570;SDS011;59407;42.682;23.322;2024-01-30T16:23:26;14.77;;;7.88;;
71570;SDS011;59407;42.682;23.322;2024-01-30T16:25:53;5.78;;;3.97;;
71570;SDS011;59407;42.682;23.322;2024-01-30T16:28:19;9.05;;;4.53;;
71570;SDS011;59407;42.682;23.322;2024-01-30T16:30:44;9.48;;;5.45;;
71570;SDS011;59407;42.682;23.322;2024-01-30T16:33:11;6.60;;;3.63;;
71570;SDS011;59407;42.682;23.322;2024-01-30T16:35:36;7.32;;;4.75;;
71570;SDS011;59407;42.682;23.322;2024-01-30T16:38:02;7.50;;;4.13;;
71570;SDS011;59407;42.682;23.322;2024-01-30T16:40:27;6.72;;;3.75;;
71570;SDS011;59407;42.682;23.322;2024-01-30T16:42:53;10.15;;;4.57;;
71570;SDS011;59407;42.682;23.322;2024-01-30T16:45:21;11.93;;;4.13;;
71570;SDS011;59407;42.682;23.322;2024-01-30T16:47:46;10.43;;;3.87;;
71570;SDS011;59407;42.682;23.322;2024-01-30T16:50:30;6.00;;;2.88;;
71570;SDS011;59407;42.682;23.322;2024-01-30T16:52:56;7.05;;;3.53;;
71570;SDS011;59407;42.682;23.322;2024-01-30T16:55:26;8.27;;;3.55;;
71570;SDS011;59407;42.682;23.322;2024-01-30T16:57:52;9.60;;;4.45;;
71570;SDS011;59407;42.682;23.322;2024-01-30T17:00:17;8.23;;;4.80;;
71570;SDS011;59407;42.682;23.322;2024-01-30T17:02:45;14.05;;;4.80;;
71570;SDS011;59407;42.682;23.322;2024-01-30T17:05:11;5.63;;;3.83;;
71570;SDS011;59407;42.682;23.322;2024-01-30T17:07:37;7.17;;;4.13;;
71570;SDS011;59407;42.682;23.322;2024-01-30T17:10:02;8.57;;;4.60;;
71570;SDS011;59407;42.682;23.322;2024-01-30T17:12:30;8.45;;;4.68;;
71570;SDS011;59407;42.682;23.322;2024-01-30T17:14:56;7.97;;;5.00;;
71570;SDS011;59407;42.682;23.322;2024-01-30T17:17:22;9.60;;;5.00;;
71570;SDS011;59407;42.682;23.322;2024-01-30T17:19:48;7.60;;;3.80;;
71570;SDS011;59407;42.682;23.322;2024-01-30T17:22:13;7.00;;;4.27;;
71570;SDS011;59407;42.682;23.322;2024-01-30T17:24:39;6.97;;;4.45;;
71570;SDS011;59407;42.682;23.322;2024-01-30T17:27:05;8.40;;;4.47;;
71570;SDS011;59407;42.682;23.322;2024-01-30T17:29:31;4.77;;;2.67;;
71570;SDS011;59407;42.682;23.322;2024-01-30T17:31:56;10.32;;;3.83;;
71570;SDS011;59407;42.682;23.322;2024-01-30T17:34:22;9.07;;;4.53;;
71570;SDS011;59407;42.682;23.322;2024-01-30T17:36:51;5.75;;;3.50;;
71570;SDS011;59407;42.682;23.322;2024-01-30T17:39:16;10.47;;;4.80;;
71570;SDS011;59407;42.682;23.322;2024-01-30T17:41:43;9.02;;;4.85;;
71570;SDS011;59407;42.682;23.322;2024-01-30T17:44:08;7.28;;;4.32;;
71570;SDS011;59407;42.682;23.322;2024-01-30T17:46:37;8.73;;;4.43;;
71570;SDS011;59407;42.682;23.322;2024-01-30T17:49:02;8.90;;;3.30;;
71570;SDS011;59407;42.682;23.322;2024-01-30T17:51:29;13.98;;;5.28;;
71570;SDS011;59407;42.682;23.322;2024-01-30T17:53:58;9.13;;;5.13;;
71570;SDS011;59407;42.682;23.322;2024-01-30T17:56:25;9.95;;;4.05;;
71570;SDS011;59407;42.682;23.322;2024-01-30T17:58:55;9.45;;;4.53;;
71570;SDS011;59407;42.682;23.322;2024-01-30T18:01:23;11.85;;;5.22;;
71570;SDS011;59407;42.682;23.322;2024-01-30T18:03:54;11.82;;;5.28;;
71570;SDS011;59407;42.682;23.322;2024-01-30T18:06:26;8.60;;;4.70;;
71570;SDS011;59407;42.682;23.322;2024-01-30T18:09:01;11.20;;;5.40;;
71570;SDS011;59407;42.682;23.322;2024-01-30T18:11:31;8.35;;;4.63;;
71570;SDS011;59407;42.682;23.322;2024-01-30T18:13:58;10.40;;;5.32;;
71570;SDS011;59407;42.682;23.322;2024-01-30T18:16:24;9.05;;;4.05;;
71570;SDS011;59407;42.682;23.322;2024-01-30T18:18:57;8.98;;;5.00;;
71570;SDS011;59407;42.682;23.322;2024-01-30T18:21:25;9.63;;;4.85;;
71570;SDS011;59407;42.682;23.322;2024-01-30T18:23:51;8.65;;;5.53;;
71570;SDS011;59407;42.682;23.322;2024-01-30T18:26:17;8.02;;;4.45;;
71570;SDS011;59407;42.682;23.322;2024-01-30T18:28:43;8.45;;;5.05;;
71570;SDS011;59407;42.682;23.322;2024-01-30T18:31:22;8.27;;;4.55;;
71570;SDS011;59407;42.682;23.322;2024-01-30T18:33:51;12.90;;;6.22;;
71570;SDS011;59407;42.682;23.322;2024-01-30T18:36:21;9.52;;;5.30;;
71570;SDS011;59407;42.682;23.322;2024-01-30T18:38:48;11.35;;;5.18;;
71570;SDS011;59407;42.682;23.322;2024-01-30T18:41:15;11.60;;;5.80;;
71570;SDS011;59407;42.682;23.322;2024-01-30T18:43:42;9.23;;;6.00;;
71570;SDS011;59407;42.682;23.322;2024-01-30T18:46:08;14.35;;;6.85;;
71570;SDS011;59407;42.682;23.322;2024-01-30T18:48:37;11.80;;;6.55;;
71570;SDS011;59407;42.682;23.322;2024-01-30T18:51:03;9.47;;;5.67;;
71570;SDS011;59407;42.682;23.322;2024-01-30T18:53:30;8.13;;;4.70;;
71570;SDS011;59407;42.682;23.322;2024-01-30T18:55:55;11.15;;;6.55;;
71570;SDS011;59407;42.682;23.322;2024-01-30T18:58:21;12.88;;;8.13;;
71570;SDS011;59407;42.682;23.322;2024-01-30T19:00:48;19.63;;;9.15;;
71570;SDS011;59407;42.682;23.322;2024-01-30T19:03:14;12.88;;;7.07;;
71570;SDS011;59407;42.682;23.322;2024-01-30T19:05:43;9.00;;;5.35;;
71570;SDS011;59407;42.682;23.322;2024-01-30T19:08:10;10.30;;;4.75;;
71570;SDS011;59407;42.682;23.322;2024-01-30T19:10:36;8.07;;;5.32;;
71570;SDS011;59407;42.682;23.322;2024-01-30T19:13:02;10.97;;;6.23;;
71570;SDS011;59407;42.682;23.322;2024-01-30T19:15:30;9.98;;;5.72;;
71570;SDS011;59407;42.682;23.322;2024-01-30T19:18:01;6.35;;;4.10;;
71570;SDS011;59407;42.682;23.322;2024-01-30T19:20:27;10.00;;;5.15;;
71570;SDS011;59407;42.682;23.322;2024-01-30T19:22:53;7.57;;;5.00;;
71570;SDS011;59407;42.682;23.322;2024-01-30T19:25:19;9.85;;;5.80;;
71570;SDS011;59407;42.682;23.322;2024-01-30T19:27:46;12.85;;;5.93;;
71570;SDS011;59407;42.682;23.322;2024-01-30T19:30:11;13.43;;;5.63;;
71570;SDS011;59407;42.682;23.322;2024-01-30T19:32:39;11.13;;;6.50;;
71570;SDS011;59407;42.682;23.322;2024-01-30T19:35:05;12.07;;;5.97;;
71570;SDS011;59407;42.682;23.322;2024-01-30T19:37:32;8.90;;;6.05;;
71570;SDS011;59407;42.682;23.322;2024-01-30T19:40:00;8.48;;;4.82;;
71570;SDS011;59407;42.682;23.322;2024-01-30T19:42:29;10.57;;;5.65;;
71570;SDS011;59407;42.682;23.322;2024-01-30T19:44:58;11.37;;;5.73;;
71570;SDS011;59407;42.682;23.322;2024-01-30T19:47:25;12.75;;;5.32;;
71570;SDS011;59407;42.682;23.322;2024-01-30T19:49:50;10.68;;;4.72;;
71570;SDS011;59407;42.682;23.322;2024-01-30T19:52:17;8.82;;;5.78;;
71570;SDS011;59407;42.682;23.322;2024-01-30T19:54:43;11.97;;;5.67;;
71570;SDS011;59407;42.682;23.322;2024-01-30T19:57:09;15.18;;;5.65;;
71570;SDS011;59407;42.682;23.322;2024-01-30T19:59:37;10.85;;;5.95;;
71570;SDS011;59407;42.682;23.322;2024-01-30T20:02:03;12.15;;;5.82;;
71570;SDS011;59407;42.682;23.322;2024-01-30T20:04:29;10.88;;;5.93;;
71570;SDS011;59407;42.682;23.322;2024-01-30T20:06:56;9.85;;;5.32;;
71570;SDS011;59407;42.682;23.322;2024-01-30T20:09:28;12.00;;;6.93;;
71570;SDS011;59407;42.682;23.322;2024-01-30T20:11:55;11.43;;;6.47;;
71570;SDS011;59407;42.682;23.322;2024-01-30T20:14:21;12.85;;;6.15;;
71570;SDS011;59407;42.682;23.322;2024-01-30T20:16:47;11.85;;;6.38;;
71570;SDS011;59407;42.682;23.322;2024-01-30T20:19:14;10.10;;;6.28;;
71570;SDS011;59407;42.682;23.322;2024-01-30T20:21:41;12.98;;;6.80;;
71570;SDS011;59407;42.682;23.322;2024-01-30T20:24:08;15.83;;;6.87;;